Time;durP1;ratioP1;P1;durP2;ratioP2;P2;SDS_P1;SDS_P2;PMS_P1;PMS_P2;Temp;Humidity;BMP_temperature;BMP_pressure;BME280_temperature;BME280_humidity;BME280_pressure;Samples;Min_cycle;Max_cycle;Signal;HPM_P1;HPM_P2
2022/09/29 00:00:55;;;;;;;0.52;0.52;;;19.60;61.20;;;;;;5024800;28;43850;-59
2022/09/29 00:03:22;;;;;;;0.88;0.73;;;19.60;61.20;;;;;;5024748;28;43421;-59
2022/09/29 00:05:52;;;;;;;0.70;0.70;;;19.60;61.20;;;;;;5025289;28;43518;-59
2022/09/29 00:08:21;;;;;;;0.63;0.63;;;19.60;61.20;;;;;;5024776;28;43375;-59
2022/09/29 00:10:49;;;;;;;0.70;0.70;;;19.60;61.20;;;;;;5024494;28;44641;-59
2022/09/29 00:13:17;;;;;;;0.70;0.70;;;19.60;61.20;;;;;;5024465;28;43919;-59
2022/09/29 00:15:54;;;;;;;0.50;0.50;;;19.50;61.20;;;;;;5024347;28;43438;-59
2022/09/29 00:18:22;;;;;;;0.55;0.55;;;19.50;61.20;;;;;;5022896;28;43435;-59
2022/09/29 00:21:12;;;;;;;0.60;0.60;;;19.50;61.20;;;;;;5016110;28;44960;-59
2022/09/29 00:23:39;;;;;;;0.50;0.50;;;19.50;61.20;;;;;;5024597;28;43482;-59
2022/09/29 00:26:13;;;;;;;0.50;0.50;;;19.50;61.30;;;;;;5016496;28;43413;-59
2022/09/29 00:28:46;;;;;;;0.77;0.77;;;19.50;61.30;;;;;;5024341;28;43537;-59
2022/09/29 00:31:14;;;;;;;0.50;0.50;;;19.40;61.20;;;;;;5024628;28;44998;-59
2022/09/29 00:33:41;;;;;;;0.57;0.57;;;19.40;61.20;;;;;;5024570;28;43722;-59
2022/09/29 00:36:11;;;;;;;0.75;0.75;;;19.40;61.30;;;;;;5024256;28;43402;-59
2022/09/29 00:38:40;;;;;;;0.60;0.60;;;19.40;61.30;;;;;;5024154;28;44035;-59
2022/09/29 00:41:25;;;;;;;0.52;0.52;;;19.40;61.30;;;;;;5023853;28;43992;-59
2022/09/29 00:44:03;;;;;;;0.65;0.65;;;19.40;61.30;;;;;;5024170;28;43352;-59
2022/09/29 00:46:49;;;;;;;0.70;0.70;;;19.40;61.30;;;;;;5023332;28;43413;-59
2022/09/29 00:49:26;;;;;;;0.60;0.60;;;19.40;61.40;;;;;;5023962;28;43406;-59
2022/09/29 00:52:12;;;;;;;0.60;0.60;;;19.40;61.40;;;;;;5024322;28;44829;-59
2022/09/29 00:54:54;;;;;;;0.80;0.80;;;19.40;61.50;;;;;;5023677;28;44231;-59
2022/09/29 00:57:27;;;;;;;0.70;0.70;;;19.40;61.50;;;;;;5024225;28;43433;-59
2022/09/29 01:00:07;;;;;;;0.77;0.75;;;19.30;61.40;;;;;;5022231;28;43451;-59
2022/09/29 01:02:43;;;;;;;0.70;0.70;;;19.30;61.40;;;;;;5023558;28;43898;-59
2022/09/29 01:05:17;;;;;;;0.88;0.77;;;19.30;61.40;;;;;;5023986;28;43893;-59
2022/09/29 01:07:45;;;;;;;0.50;0.50;;;19.30;61.40;;;;;;5021696;28;43400;-60
2022/09/29 01:10:15;;;;;;;0.82;0.75;;;19.20;61.50;;;;;;5024345;28;43584;-59
2022/09/29 01:12:48;;;;;;;0.60;0.60;;;19.30;61.50;;;;;;5022062;28;44695;-59
2022/09/29 01:15:21;;;;;;;0.60;0.60;;;19.30;61.50;;;;;;5021465;28;43412;-59
2022/09/29 01:17:49;;;;;;;0.63;0.63;;;19.20;61.40;;;;;;5022567;28;43407;-59
2022/09/29 01:20:20;;;;;;;0.70;0.70;;;19.20;61.40;;;;;;5024174;28;43446;-60
2022/09/29 01:23:19;;;;;;;0.60;0.60;;;19.20;61.50;;;;;;5023776;28;44912;-59
2022/09/29 01:26:07;;;;;;;0.60;0.60;;;19.20;61.40;;;;;;5023010;28;43965;-59
2022/09/29 01:29:07;;;;;;;0.60;0.60;;;19.20;61.50;;;;;;5023803;28;43452;-59
2022/09/29 01:31:40;;;;;;;0.63;0.63;;;19.20;61.50;;;;;;5009540;28;43692;-59
2022/09/29 01:34:14;;;;;;;0.60;0.60;;;19.20;61.50;;;;;;5022327;28;44664;-59
2022/09/29 01:36:41;;;;;;;0.82;0.82;;;19.10;61.50;;;;;;5023509;28;44037;-59
2022/09/29 01:39:21;;;;;;;0.43;0.43;;;19.10;61.50;;;;;;5023611;28;43382;-59
2022/09/29 01:42:00;;;;;;;0.50;0.50;;;19.10;61.50;;;;;;5016818;28;43485;-59
2022/09/29 01:44:44;;;;;;;0.70;0.70;;;19.10;61.50;;;;;;5023253;28;44033;-59
2022/09/29 01:47:34;;;;;;;0.50;0.50;;;19.10;61.50;;;;;;5021463;28;43455;-59
2022/09/29 01:50:15;;;;;;;0.75;0.75;;;19.10;61.50;;;;;;5023752;28;43449;-59
2022/09/29 01:52:48;;;;;;;0.65;0.65;;;19.00;61.50;;;;;;5022909;28;43482;-59
2022/09/29 01:55:19;;;;;;;0.40;0.40;;;19.00;61.50;;;;;;5022692;28;44678;-59
2022/09/29 01:57:46;;;;;;;0.60;0.60;;;19.00;61.50;;;;;;5023248;28;43778;-59
2022/09/29 02:00:17;;;;;;;0.93;0.63;;;19.00;61.60;;;;;;5023166;28;43452;-59
2022/09/29 02:02:52;;;;;;;0.60;0.60;;;19.00;61.50;;;;;;5023344;28;43522;-59
2022/09/29 02:05:54;;;;;;;0.47;0.47;;;19.00;61.60;;;;;;5022041;28;44932;-59
2022/09/29 02:08:56;;;;;;;0.50;0.50;;;19.00;61.50;;;;;;5018563;28;43428;-59
2022/09/29 02:11:23;;;;;;;0.43;0.43;;;19.00;61.50;;;;;;5023152;28;43447;-58
2022/09/29 02:14:00;;;;;;;0.93;0.50;;;19.00;61.60;;;;;;5022545;28;43463;-59
2022/09/29 02:16:35;;;;;;;0.55;0.50;;;19.00;61.60;;;;;;5022611;28;44891;-59
2022/09/29 02:19:14;;;;;;;0.50;0.50;;;19.00;61.60;;;;;;5023075;28;44835;-59
2022/09/29 02:21:42;;;;;;;0.60;0.60;;;18.90;61.50;;;;;;5022927;28;43409;-59
2022/09/29 02:24:11;;;;;;;0.80;0.80;;;18.90;61.60;;;;;;5023358;28;43446;-60
2022/09/29 02:26:40;;;;;;;0.50;0.50;;;18.90;61.60;;;;;;5022034;28;43888;-59
2022/09/29 02:29:08;;;;;;;0.47;0.47;;;18.90;61.50;;;;;;5022920;28;44174;-59
2022/09/29 02:31:37;;;;;;;0.40;0.40;;;18.90;61.60;;;;;;5022106;28;43408;-59
2022/09/29 02:34:08;;;;;;;0.47;0.47;;;18.90;61.60;;;;;;5022912;28;43497;-59
2022/09/29 02:37:16;;;;;;;0.40;0.40;;;18.90;61.60;;;;;;5021111;28;43703;-59
2022/09/29 02:40:04;;;;;;;0.40;0.40;;;18.90;61.50;;;;;;4999669;28;43879;-59
2022/09/29 02:42:49;;;;;;;0.40;0.40;;;18.80;61.60;;;;;;4998746;28;43432;-59
2022/09/29 02:45:31;;;;;;;0.60;0.60;;;18.80;61.60;;;;;;5016861;28;43521;-59
2022/09/29 02:48:14;;;;;;;0.52;0.52;;;18.80;61.60;;;;;;5022550;28;44671;-59
2022/09/29 02:51:09;;;;;;;0.47;0.47;;;18.80;61.60;;;;;;5022634;28;43498;-59
2022/09/29 02:53:54;;;;;;;1.00;0.50;;;18.80;61.60;;;;;;5022259;28;43400;-59
2022/09/29 02:56:24;;;;;;;0.43;0.43;;;18.80;61.60;;;;;;5021749;28;43418;-60
2022/09/29 02:59:06;;;;;;;0.43;0.43;;;18.80;61.60;;;;;;5022582;28;44780;-60
2022/09/29 03:01:35;;;;;;;0.52;0.52;;;18.80;61.70;;;;;;5021701;28;43775;-59
2022/09/29 03:04:03;;;;;;;0.60;0.60;;;18.70;61.60;;;;;;5021827;28;43442;-59
2022/09/29 03:06:31;;;;;;;0.60;0.60;;;18.70;61.60;;;;;;5022217;28;43566;-59
2022/09/29 03:08:58;;;;;;;0.60;0.60;;;18.70;61.60;;;;;;5022574;28;44840;-60
2022/09/29 03:11:26;;;;;;;0.43;0.43;;;18.70;61.60;;;;;;5021551;28;43912;-59
2022/09/29 03:13:54;;;;;;;0.50;0.50;;;18.70;62.30;;;;;;5022624;28;43501;-59
2022/09/29 03:16:21;;;;;;;0.60;0.60;;;18.70;61.60;;;;;;5020214;28;43456;-59
2022/09/29 03:18:48;;;;;;;0.52;0.52;;;18.70;61.60;;;;;;5021894;28;45106;-59
2022/09/29 03:21:16;;;;;;;0.50;0.50;;;18.70;61.70;;;;;;5021961;28;43669;-59
2022/09/29 03:23:43;;;;;;;0.47;0.47;;;18.70;61.70;;;;;;5021565;28;43450;-59
2022/09/29 03:26:10;;;;;;;0.50;0.50;;;18.70;61.60;;;;;;5022330;28;43452;-59
2022/09/29 03:28:38;;;;;;;0.30;0.30;;;18.70;61.60;;;;;;5021996;28;44898;-60
2022/09/29 03:31:08;;;;;;;0.60;0.60;;;18.70;61.70;;;;;;5021554;28;43392;-59
2022/09/29 03:33:37;;;;;;;0.38;0.38;;;18.70;61.60;;;;;;5021511;28;43504;-59
2022/09/29 03:36:07;;;;;;;0.40;0.40;;;18.70;61.70;;;;;;5022191;28;43474;-59
2022/09/29 03:38:35;;;;;;;1.07;0.67;;;18.60;61.60;;;;;;5018432;28;43908;-59
2022/09/29 03:41:02;;;;;;;0.57;0.47;;;18.60;61.60;;;;;;5022138;28;43519;-60
2022/09/29 03:43:30;;;;;;;0.40;0.40;;;18.60;61.60;;;;;;5021005;28;43416;-59
2022/09/29 03:45:57;;;;;;;0.40;0.40;;;18.60;61.60;;;;;;5021867;28;43508;-60
2022/09/29 03:48:29;;;;;;;0.38;0.38;;;18.60;61.60;;;;;;5018813;28;43912;-59
2022/09/29 03:50:57;;;;;;;0.50;0.50;;;18.60;61.60;;;;;;5017441;28;44449;-59
2022/09/29 03:53:24;;;;;;;0.40;0.40;;;18.60;61.60;;;;;;5021428;28;43605;-59
2022/09/29 03:55:52;;;;;;;0.40;0.40;;;18.60;61.60;;;;;;5021883;28;43443;-60
2022/09/29 03:58:19;;;;;;;0.52;0.52;;;18.60;61.60;;;;;;5021821;28;44916;-59
2022/09/29 04:00:48;;;;;;;0.50;0.50;;;18.50;61.60;;;;;;5018092;28;43503;-59
2022/09/29 04:03:15;;;;;;;0.50;0.50;;;18.50;61.60;;;;;;5021461;28;43460;-61
2022/09/29 04:05:47;;;;;;;0.55;0.55;;;18.50;61.60;;;;;;5021121;28;43562;-59
2022/09/29 04:08:15;;;;;;;0.32;0.32;;;18.60;61.70;;;;;;5020619;28;44793;-59
2022/09/29 04:10:44;;;;;;;0.40;0.40;;;18.50;61.70;;;;;;5051028;28;44206;-59
2022/09/29 04:13:12;;;;;;;0.50;0.50;;;18.50;61.70;;;;;;5021027;28;43496;-59
2022/09/29 04:15:46;;;;;;;0.82;0.47;;;18.50;61.60;;;;;;5021572;28;43395;-59
2022/09/29 04:18:13;;;;;;;0.40;0.40;;;18.50;61.70;;;;;;5021527;28;45192;-59
2022/09/29 04:20:41;;;;;;;0.50;0.50;;;18.50;61.60;;;;;;5021026;28;43531;-59
2022/09/29 04:23:08;;;;;;;0.30;0.30;;;18.50;61.70;;;;;;5021701;28;43473;-59
2022/09/29 04:25:35;;;;;;;0.43;0.43;;;18.50;61.70;;;;;;5020992;28;43442;-60
2022/09/29 04:28:03;;;;;;;0.50;0.50;;;18.50;61.70;;;;;;5021276;28;44720;-59
2022/09/29 04:30:30;;;;;;;0.32;0.32;;;18.40;61.60;;;;;;5023329;28;43839;-59
2022/09/29 04:32:57;;;;;;;0.40;0.40;;;18.40;61.60;;;;;;5024808;28;43423;-59
2022/09/29 04:35:25;;;;;;;0.40;0.40;;;18.40;61.70;;;;;;5024145;28;43450;-59
2022/09/29 04:37:58;;;;;;;0.40;0.40;;;18.40;61.70;;;;;;5024617;28;43872;-59
2022/09/29 04:40:25;;;;;;;0.50;0.50;;;18.40;61.70;;;;;;5024383;28;43438;-59
2022/09/29 04:42:53;;;;;;;0.43;0.43;;;18.40;61.70;;;;;;5024581;28;43430;-59
2022/09/29 04:45:20;;;;;;;0.38;0.38;;;18.40;62.40;;;;;;5024354;28;43455;-59
2022/09/29 04:47:47;;;;;;;0.60;0.40;;;18.40;61.70;;;;;;5022401;28;44018;-59
2022/09/29 04:50:15;;;;;;;0.40;0.40;;;18.40;61.70;;;;;;5024320;28;43802;-60
2022/09/29 04:52:43;;;;;;;0.50;0.50;;;18.40;61.70;;;;;;5021750;28;43426;-60
2022/09/29 04:55:11;;;;;;;0.50;0.50;;;18.40;61.60;;;;;;5023862;28;43483;-60
2022/09/29 04:57:41;;;;;;;0.35;0.35;;;18.40;61.70;;;;;;5023573;28;44996;-60
2022/09/29 05:00:09;;;;;;;0.52;0.52;;;18.40;61.70;;;;;;5024201;28;43446;-59
2022/09/29 05:02:37;;;;;;;0.30;0.30;;;18.40;61.80;;;;;;5021508;28;43657;-59
2022/09/29 05:05:05;;;;;;;0.47;0.47;;;18.40;61.80;;;;;;5023628;28;43652;-59
2022/09/29 05:07:38;;;;;;;0.50;0.50;;;18.40;61.80;;;;;;5023256;28;44794;-59
2022/09/29 05:10:07;;;;;;;0.47;0.47;;;18.40;61.70;;;;;;5023894;28;43406;-59
2022/09/29 05:12:34;;;;;;;0.65;0.65;;;18.40;61.70;;;;;;5021774;28;43955;-60
2022/09/29 05:15:03;;;;;;;0.65;0.65;;;18.40;61.70;;;;;;5024169;28;43501;-60
2022/09/29 05:17:31;;;;;;;0.57;0.57;;;18.40;61.60;;;;;;5022760;28;44819;-59
2022/09/29 05:19:58;;;;;;;0.65;0.65;;;18.30;61.60;;;;;;5023855;28;43778;-60
2022/09/29 05:22:25;;;;;;;0.70;0.70;;;18.30;61.60;;;;;;5023633;28;43453;-60
2022/09/29 05:24:52;;;;;;;0.77;0.77;;;18.30;61.60;;;;;;5022461;28;43474;-60
2022/09/29 05:27:21;;;;;;;0.50;0.50;;;18.30;61.50;;;;;;5052780;28;45867;-60
2022/09/29 05:29:49;;;;;;;0.70;0.70;;;18.30;61.60;;;;;;5023272;28;43547;-60
2022/09/29 05:32:16;;;;;;;0.73;0.68;;;18.30;61.50;;;;;;5023144;28;43439;-60
2022/09/29 05:34:43;;;;;;;0.70;0.70;;;18.30;61.50;;;;;;5023567;28;43957;-60
2022/09/29 05:37:11;;;;;;;0.80;0.80;;;18.30;61.60;;;;;;5022780;28;44941;-59
2022/09/29 05:39:39;;;;;;;0.70;0.70;;;18.30;61.70;;;;;;5022626;28;44113;-60
2022/09/29 05:42:10;;;;;;;0.70;0.70;;;18.30;61.60;;;;;;5022170;28;43501;-59
2022/09/29 05:44:37;;;;;;;;;;;18.30;61.70;;;;;;5021587;28;43400;-60
2022/09/29 05:47:04;;;;;;;0.60;0.60;;;18.30;61.70;;;;;;5023626;28;45235;-60
2022/09/29 05:49:32;;;;;;;0.70;0.70;;;18.30;61.80;;;;;;5022808;28;43818;-60
2022/09/29 05:51:59;;;;;;;0.75;0.75;;;18.30;61.70;;;;;;5023213;28;43403;-59
2022/09/29 05:54:27;;;;;;;0.93;0.93;;;18.20;61.70;;;;;;5023261;28;43470;-59
2022/09/29 05:56:55;;;;;;;0.80;0.80;;;18.30;61.80;;;;;;5022827;28;44683;-59
2022/09/29 05:59:22;;;;;;;0.80;0.80;;;18.30;61.80;;;;;;5022742;28;43948;-59
2022/09/29 06:01:49;;;;;;;0.85;0.85;;;18.30;61.80;;;;;;5023527;28;43436;-59
2022/09/29 06:04:17;;;;;;;0.70;0.70;;;18.30;61.80;;;;;;5022552;28;43463;-60
2022/09/29 06:06:46;;;;;;;1.48;1.10;;;18.20;61.70;;;;;;5022504;28;43776;-59
2022/09/29 06:09:14;;;;;;;0.82;0.80;;;18.30;61.80;;;;;;5023103;28;43421;-60
2022/09/29 06:11:41;;;;;;;0.60;0.60;;;18.30;61.80;;;;;;5024525;28;43467;-60
2022/09/29 06:14:09;;;;;;;0.65;0.65;;;18.30;61.80;;;;;;5022668;28;43490;-60
2022/09/29 06:16:36;;;;;;;0.80;0.80;;;18.30;61.80;;;;;;5022203;28;44851;-60
2022/09/29 06:19:04;;;;;;;0.60;0.60;;;18.20;61.80;;;;;;5022922;28;43928;-59
2022/09/29 06:21:34;;;;;;;1.08;0.65;;;18.20;61.90;;;;;;5020616;28;43575;-60
2022/09/29 06:24:01;;;;;;;0.80;0.80;;;18.20;61.80;;;;;;5022874;28;43450;-60
2022/09/29 06:26:29;;;;;;;0.80;0.80;;;18.20;61.80;;;;;;5021381;28;44946;-59
2022/09/29 06:28:57;;;;;;;0.90;0.80;;;18.20;62.10;;;;;;5023118;28;43424;-59
2022/09/29 06:31:27;;;;;;;1.10;0.90;;;18.20;61.90;;;;;;5022521;28;43429;-60
2022/09/29 06:33:59;;;;;;;0.90;0.90;;;18.20;61.80;;;;;;5022408;28;43641;-59
2022/09/29 06:39:14;;;;;;;1.98;0.82;;;18.20;62.00;;;;;;5015855;28;43481;-61
2022/09/29 06:41:47;;;;;;;1.20;1.00;;;18.10;62.00;;;;;;5019857;28;43415;-61
2022/09/29 06:44:15;;;;;;;0.90;0.90;;;18.10;62.00;;;;;;5022758;28;43487;-61
2022/09/29 06:46:42;;;;;;;1.05;1.05;;;18.10;62.00;;;;;;5022149;28;45154;-61
2022/09/29 06:49:14;;;;;;;0.80;0.80;;;18.10;62.00;;;;;;5022367;28;43916;-61
2022/09/29 06:51:42;;;;;;;1.10;0.90;;;18.10;62.00;;;;;;5022120;28;43479;-61
2022/09/29 06:54:15;;;;;;;1.13;1.13;;;18.10;62.00;;;;;;5022706;28;43511;-61
2022/09/29 06:56:46;;;;;;;1.20;1.10;;;18.10;62.00;;;;;;5021503;28;44662;-61
2022/09/29 06:59:14;;;;;;;1.25;1.15;;;18.10;62.00;;;;;;5022728;28;43442;-61
2022/09/29 07:01:41;;;;;;;1.10;1.10;;;18.10;62.00;;;;;;5001238;28;43927;-61
2022/09/29 07:04:10;;;;;;;1.08;1.02;;;18.10;61.90;;;;;;5017611;28;43569;-61
2022/09/29 07:06:37;;;;;;;0.98;0.98;;;18.10;62.00;;;;;;5019271;28;43866;-61
2022/09/29 07:09:04;;;;;;;0.90;0.90;;;18.10;61.90;;;;;;5022093;28;43458;-61
2022/09/29 07:11:31;;;;;;;1.90;1.40;;;18.10;62.00;;;;;;5053495;28;43403;-61
2022/09/29 07:13:59;;;;;;;1.00;1.00;;;18.10;62.10;;;;;;5018888;28;43582;-61
2022/09/29 07:16:26;;;;;;;1.48;1.08;;;18.10;62.00;;;;;;5021176;28;45177;-61
2022/09/29 07:18:53;;;;;;;1.13;1.00;;;18.10;62.00;;;;;;5022343;28;43641;-61
2022/09/29 07:21:21;;;;;;;1.77;1.30;;;18.00;62.00;;;;;;5018383;28;43399;-61
2022/09/29 07:23:49;;;;;;;1.02;1.02;;;18.00;62.00;;;;;;5021498;28;43589;-61
2022/09/29 07:26:17;;;;;;;1.40;1.30;;;18.00;62.00;;;;;;5021959;28;43633;-61
2022/09/29 07:28:45;;;;;;;1.35;1.25;;;18.00;62.00;;;;;;5021669;28;43348;-61
2022/09/29 07:31:16;;;;;;;1.02;1.00;;;18.00;62.00;;;;;;5018734;28;43474;-61
2022/09/29 07:33:44;;;;;;;1.02;1.02;;;18.00;62.10;;;;;;5010356;28;43566;-61
2022/09/29 07:36:13;;;;;;;1.40;1.30;;;18.00;62.10;;;;;;5021816;28;44622;-61
2022/09/29 07:38:41;;;;;;;1.38;1.27;;;18.00;62.10;;;;;;5021227;28;43933;-61
2022/09/29 07:41:10;;;;;;;1.10;1.05;;;18.00;62.20;;;;;;5022096;28;43533;-61
2022/09/29 07:43:39;;;;;;;1.33;1.13;;;18.00;62.20;;;;;;5020701;28;43463;-61
2022/09/29 07:46:07;;;;;;;1.90;1.30;;;18.00;62.20;;;;;;5020255;28;44149;-61
2022/09/29 07:48:36;;;;;;;1.13;1.02;;;18.00;62.80;;;;;;5021348;28;43482;-61
2022/09/29 07:51:12;;;;;;;1.23;1.17;;;18.00;62.20;;;;;;5021534;28;43418;-61
2022/09/29 07:53:41;;;;;;;1.67;1.15;;;18.00;62.20;;;;;;5021928;28;43518;-61
2022/09/29 07:56:12;;;;;;;1.33;0.93;;;18.00;62.20;;;;;;5021136;28;44900;-61
2022/09/29 07:58:41;;;;;;;2.28;1.15;;;18.00;62.20;;;;;;5018722;28;43479;-61
2022/09/29 08:01:11;;;;;;;1.27;1.17;;;18.00;62.50;;;;;;5021371;28;43423;-62
2022/09/29 08:03:40;;;;;;;1.83;1.50;;;18.00;62.50;;;;;;5020830;28;43457;-62
2022/09/29 08:06:09;;;;;;;1.63;1.52;;;18.00;62.60;;;;;;5020136;28;43610;-62
2022/09/29 08:08:37;;;;;;;2.03;1.92;;;18.00;62.60;;;;;;5021719;28;43826;-61
2022/09/29 08:11:15;;;;;;;2.38;1.60;;;18.00;62.50;;;;;;5027378;28;43460;-62
2022/09/29 08:13:57;;;;;;;1.75;1.65;;;18.10;62.50;;;;;;5023279;28;43516;-62
2022/09/29 08:16:24;;;;;;;2.10;2.00;;;18.20;62.40;;;;;;5024612;28;44715;-63
2022/09/29 08:18:52;;;;;;;1.80;1.70;;;18.20;62.30;;;;;;5056293;28;43461;-62
2022/09/29 08:21:19;;;;;;;2.47;1.70;;;18.40;62.20;;;;;;5024773;28;43417;-62
2022/09/29 08:23:46;;;;;;;1.80;1.70;;;18.50;62.10;;;;;;5024557;28;43424;-62
2022/09/29 08:26:16;;;;;;;2.03;1.90;;;18.60;62.10;;;;;;5022937;28;44782;-61
2022/09/29 08:28:46;;;;;;;2.00;1.90;;;18.60;61.90;;;;;;5039142;28;43448;-61
2022/09/29 08:31:22;;;;;;;1.95;1.85;;;18.70;61.80;;;;;;5024192;28;43375;-61
2022/09/29 08:33:51;;;;;;;2.22;1.80;;;18.80;61.70;;;;;;5024025;28;43947;-61
2022/09/29 08:36:19;;;;;;;1.83;1.40;;;18.80;61.60;;;;;;5023764;28;44278;-61
2022/09/29 08:38:56;;;;;;;2.47;2.03;;;18.90;61.60;;;;;;5024459;28;44160;-61
2022/09/29 08:41:27;;;;;;;2.40;1.67;;;18.90;61.40;;;;;;5024118;28;44094;-61
2022/09/29 08:44:03;;;;;;;2.22;1.85;;;19.00;61.40;;;;;;5024930;28;43497;-61
2022/09/29 08:46:52;;;;;;;1.80;1.70;;;19.10;61.30;;;;;;5022138;28;46242;-61
2022/09/29 08:49:41;;;;;;;3.05;1.88;;;19.10;61.20;;;;;;5022918;28;43522;-61
2022/09/29 08:52:14;;;;;;;3.60;1.75;;;19.20;61.20;;;;;;5052208;28;43462;-61
2022/09/29 08:54:46;;;;;;;2.20;1.60;;;19.30;61.20;;;;;;5024009;28;43539;-62
2022/09/29 08:57:18;;;;;;;1.63;1.50;;;19.50;61.10;;;;;;5024024;28;44085;-61
2022/09/29 09:00:07;;;;;;;1.63;1.52;;;19.60;60.80;;;;;;5020223;28;45079;-61
2022/09/29 09:02:55;;;;;;;2.78;1.80;;;19.80;60.50;;;;;;5022104;28;43437;-61
2022/09/29 09:05:35;;;;;;;1.98;1.88;;;19.90;60.40;;;;;;5023444;28;43542;-61
2022/09/29 09:08:28;;;;;;;2.05;1.50;;;20.00;60.10;;;;;;5012813;28;43884;-61
2022/09/29 09:10:55;;;;;;;1.55;1.45;;;20.10;59.90;;;;;;5023427;28;43446;-61
2022/09/29 09:13:38;;;;;;;1.63;1.38;;;20.20;59.80;;;;;;5021916;28;43367;-61
2022/09/29 09:16:12;;;;;;;1.98;1.50;;;20.20;59.60;;;;;;5022185;28;43494;-61
2022/09/29 09:18:55;;;;;;;2.22;1.85;;;20.30;59.60;;;;;;5022165;28;44658;-61
2022/09/29 09:21:46;;;;;;;2.83;1.73;;;20.40;59.50;;;;;;5021255;28;43443;-61
2022/09/29 09:24:29;;;;;;;1.60;1.50;;;20.40;59.40;;;;;;5015449;28;43424;-61
2022/09/29 09:26:58;;;;;;;1.60;1.50;;;20.40;59.50;;;;;;5023828;28;43444;-61
2022/09/29 09:29:35;;;;;;;1.70;1.52;;;20.40;59.60;;;;;;5022055;28;44033;-61
2022/09/29 09:32:20;;;;;;;1.98;1.50;;;20.40;59.60;;;;;;5017622;28;43990;-61
2022/09/29 09:34:48;;;;;;;1.35;1.25;;;20.30;59.60;;;;;;5037561;28;43521;-61
2022/09/29 09:37:19;;;;;;;1.52;1.42;;;20.30;59.70;;;;;;5023023;28;43471;-61
2022/09/29 09:39:49;;;;;;;;;;;20.30;59.70;;;;;;5023344;28;45021;-61
2022/09/29 09:42:25;;;;;;;1.92;1.80;;;20.30;59.80;;;;;;5022231;28;43426;-61
2022/09/29 09:45:16;;;;;;;2.20;1.90;;;20.30;59.90;;;;;;5021269;28;44066;-61
2022/09/29 09:47:52;;;;;;;1.60;1.50;;;20.20;60.60;;;;;;5038007;28;43526;-61
2022/09/29 09:50:24;;;;;;;1.80;1.70;;;20.20;60.00;;;;;;5022648;28;44040;-61
2022/09/29 09:52:55;;;;;;;1.63;1.38;;;20.20;60.00;;;;;;5023308;28;44123;-61
2022/09/29 09:55:25;;;;;;;1.33;1.30;;;20.20;60.00;;;;;;5022704;28;43474;-61
2022/09/29 09:58:34;;;;;;;4.35;1.80;;;20.20;60.40;;;;;;5022993;28;43601;-64
2022/09/29 10:01:05;;;;;;;4.75;1.98;;;20.20;60.50;;;;;;5020121;28;43677;-60
2022/09/29 10:03:35;;;;;;;2.30;2.00;;;20.30;60.60;;;;;;5020008;28;43562;-60
2022/09/29 10:06:06;;;;;;;2.17;2.00;;;20.30;60.30;;;;;;5022067;28;43476;-60
2022/09/29 10:08:38;;;;;;;2.47;2.00;;;20.30;60.30;;;;;;5016877;28;43444;-60
2022/09/29 10:11:23;;;;;;;2.00;1.90;;;20.40;60.30;;;;;;5013811;28;45005;-59
2022/09/29 10:14:08;;;;;;;2.70;2.22;;;20.40;60.40;;;;;;5019635;28;43851;-60
2022/09/29 10:16:50;;;;;;;2.40;1.75;;;20.50;60.30;;;;;;5021418;28;43487;-60
2022/09/29 10:19:40;;;;;;;1.92;1.70;;;20.50;60.20;;;;;;5020487;28;43475;-59
2022/09/29 10:22:13;;;;;;;1.80;1.70;;;20.50;60.10;;;;;;5021856;28;43748;-60
2022/09/29 10:24:40;;;;;;;2.53;1.55;;;20.60;60.10;;;;;;5021162;28;43511;-60
2022/09/29 10:27:09;;;;;;;4.03;1.83;;;20.70;60.10;;;;;;5020913;28;43561;-60
2022/09/29 10:29:40;;;;;;;1.67;1.58;;;20.70;60.10;;;;;;5018120;28;43514;-60
2022/09/29 10:32:37;;;;;;;1.98;1.70;;;20.70;60.00;;;;;;5021387;28;44899;-60
2022/09/29 10:35:14;;;;;;;2.15;1.65;;;20.80;59.90;;;;;;5019941;28;44129;-60
2022/09/29 10:37:45;;;;;;;1.60;1.50;;;20.80;59.90;;;;;;5020516;28;43456;-60
2022/09/29 10:40:20;;;;;;;1.90;1.60;;;20.80;59.80;;;;;;5019994;28;43574;-60
2022/09/29 10:42:50;;;;;;;2.08;1.65;;;20.90;60.00;;;;;;5015199;28;45945;-60
2022/09/29 10:45:21;;;;;;;1.50;1.40;;;20.90;60.10;;;;;;5020371;28;43446;-60
2022/09/29 10:47:57;;;;;;;2.67;1.60;;;20.90;60.00;;;;;;5021275;28;43479;-60
2022/09/29 10:50:27;;;;;;;1.90;1.80;;;21.00;60.10;;;;;;5021899;28;43546;-60
2022/09/29 10:53:03;;;;;;;2.63;1.23;;;21.00;60.00;;;;;;5019911;28;44101;-60
2022/09/29 10:55:34;;;;;;;2.08;1.88;;;21.10;60.10;;;;;;5020090;28;44201;-60
2022/09/29 10:58:29;;;;;;;2.25;1.48;;;21.10;59.90;;;;;;5020217;28;43447;-60
2022/09/29 11:01:18;;;;;;;2.20;1.30;;;21.20;60.10;;;;;;5021264;28;43531;-60
2022/09/29 11:04:02;;;;;;;1.35;1.20;;;21.30;59.90;;;;;;5017476;28;43932;-60
2022/09/29 11:06:36;;;;;;;1.77;1.50;;;21.40;59.90;;;;;;5032849;28;45368;-60
2022/09/29 11:09:14;;;;;;;1.38;1.20;;;21.40;59.80;;;;;;5017170;28;44073;-60
2022/09/29 11:11:48;;;;;;;1.30;1.10;;;21.50;59.70;;;;;;5052757;28;43535;-60
2022/09/29 11:14:37;;;;;;;2.53;1.40;;;21.60;59.70;;;;;;5019179;28;43953;-60
2022/09/29 11:17:27;;;;;;;1.40;1.10;;;21.70;59.60;;;;;;5021739;28;43524;-60
2022/09/29 11:20:00;;;;;;;1.67;1.40;;;21.70;59.60;;;;;;5021089;28;43482;-61
2022/09/29 11:22:54;;;;;;;1.27;1.17;;;21.70;59.60;;;;;;5019474;28;43430;-61
2022/09/29 11:26:06;;;;;;;1.73;1.23;;;21.70;59.50;;;;;;5019125;28;43782;-61
2022/09/29 11:28:58;;;;;;;1.25;1.00;;;21.70;59.40;;;;;;5020424;28;44075;-61
2022/09/29 11:31:58;;;;;;;1.25;1.00;;;21.70;59.50;;;;;;5018505;28;43478;-60
2022/09/29 11:35:04;;;;;;;1.38;0.95;;;21.60;59.50;;;;;;5017781;28;44004;-60
2022/09/29 11:37:39;;;;;;;2.25;1.10;;;21.60;59.60;;;;;;4961156;28;43929;-61
2022/09/29 11:40:42;;;;;;;1.17;1.08;;;21.60;59.50;;;;;;5014981;28;43441;-61
2022/09/29 11:43:27;;;;;;;3.30;1.08;;;21.60;59.60;;;;;;5018071;28;43501;-60
2022/09/29 11:46:04;;;;;;;0.88;0.88;;;21.60;59.70;;;;;;5039279;28;43613;-60
2022/09/29 11:49:08;;;;;;;1.17;1.00;;;21.60;59.70;;;;;;5023140;28;44069;-60
2022/09/29 11:51:50;;;;;;;1.17;1.00;;;21.60;59.90;;;;;;5023105;28;43477;-60
2022/09/29 11:54:43;;;;;;;0.95;0.90;;;21.60;59.70;;;;;;5006395;28;43523;-60
2022/09/29 11:57:31;;;;;;;0.90;0.90;;;21.60;59.90;;;;;;5020547;28;43581;-59
2022/09/29 12:00:16;;;;;;;1.08;0.98;;;21.60;60.40;;;;;;5021225;28;44021;-61
2022/09/29 12:02:43;;;;;;;1.85;0.82;;;21.60;59.90;;;;;;5056612;28;43557;-60
2022/09/29 12:05:43;;;;;;;1.02;0.90;;;21.60;59.80;;;;;;5023267;28;43530;-61
2022/09/29 12:08:33;;;;;;;1.80;0.88;;;21.70;59.80;;;;;;5017034;28;43628;-60
2022/09/29 12:11:10;;;;;;;0.80;0.80;;;21.70;59.90;;;;;;5025504;28;44368;-60
2022/09/29 12:14:14;;;;;;;0.80;0.80;;;21.70;59.80;;;;;;5024825;28;43504;-60
2022/09/29 12:16:51;;;;;;;1.20;1.10;;;21.70;59.80;;;;;;5024604;28;43387;-60
2022/09/29 12:19:23;;;;;;;0.80;0.80;;;21.60;59.80;;;;;;5011784;28;43552;-60
2022/09/29 12:21:52;;;;;;;0.68;0.68;;;21.60;59.90;;;;;;5053486;28;43680;-60
2022/09/29 12:24:43;;;;;;;0.88;0.88;;;21.60;60.00;;;;;;5024439;28;43941;-60
2022/09/29 12:27:24;;;;;;;0.70;0.70;;;21.60;60.00;;;;;;5023889;28;43614;-60
2022/09/29 12:29:52;;;;;;;0.55;0.55;;;21.60;60.00;;;;;;5056781;28;43528;-60
2022/09/29 12:32:27;;;;;;;0.90;0.80;;;21.60;60.00;;;;;;5023773;28;43946;-59
2022/09/29 12:35:03;;;;;;;0.68;0.68;;;21.60;60.00;;;;;;5023228;28;43543;-60
2022/09/29 12:37:49;;;;;;;0.93;0.90;;;21.60;60.10;;;;;;5024147;28;43434;-59
2022/09/29 12:40:31;;;;;;;1.15;1.00;;;21.50;60.00;;;;;;5023781;28;43562;-60
2022/09/29 12:43:11;;;;;;;1.88;0.85;;;21.50;60.00;;;;;;5020572;28;44532;-60
2022/09/29 12:45:58;;;;;;;0.40;0.40;;;21.50;60.10;;;;;;5023486;28;43522;-60
2022/09/29 12:48:47;;;;;;;0.82;0.80;;;21.50;60.10;;;;;;5013607;28;43983;-60
2022/09/29 12:51:32;;;;;;;0.90;0.90;;;21.50;60.10;;;;;;5024016;28;43562;-60
2022/09/29 12:54:31;;;;;;;1.00;0.68;;;21.50;60.10;;;;;;5048052;28;44543;-60
2022/09/29 12:57:05;;;;;;;0.68;0.60;;;21.50;60.10;;;;;;5021338;28;43440;-60
2022/09/29 12:59:38;;;;;;;0.65;0.60;;;21.50;60.20;;;;;;5022598;28;43474;-60
2022/09/29 13:02:21;;;;;;;1.15;0.77;;;21.50;60.20;;;;;;5022815;28;43529;-60
2022/09/29 13:05:16;;;;;;;0.47;0.47;;;21.50;60.10;;;;;;5017256;28;46058;-60
2022/09/29 13:08:22;;;;;;;1.00;0.90;;;21.50;60.30;;;;;;5020410;28;43458;-60
2022/09/29 13:11:14;;;;;;;0.50;0.50;;;21.50;60.50;;;;;;5019664;28;43561;-60
2022/09/29 13:13:46;;;;;;;0.75;0.75;;;21.50;60.40;;;;;;5054310;28;43429;-60
2022/09/29 13:16:20;;;;;;;0.75;0.70;;;21.50;60.40;;;;;;5022080;28;44111;-60
2022/09/29 13:19:24;;;;;;;0.60;0.60;;;21.50;60.40;;;;;;5019805;28;43466;-60
2022/09/29 13:22:21;;;;;;;1.10;0.60;;;21.50;60.50;;;;;;5022360;28;43446;-60
2022/09/29 13:25:20;;;;;;;0.70;0.70;;;21.50;60.40;;;;;;5022782;28;43446;-60
2022/09/29 13:27:50;;;;;;;0.50;0.50;;;21.50;60.50;;;;;;5028631;28;44037;-60
2022/09/29 13:30:22;;;;;;;0.73;0.73;;;21.50;60.50;;;;;;5020944;28;43423;-60